sensor_id;sensor_type;location;lat;lon;timestamp;P1;durP1;ratioP1;P2;durP2;ratioP2
68273;SDS011;55104;47.356;19.448;2023-04-01T00:00:32;1.35;;;0.50;;
68273;SDS011;55104;47.356;19.448;2023-04-01T00:03:35;1.27;;;0.40;;
68273;SDS011;55104;47.356;19.448;2023-04-01T00:06:37;1.45;;;0.50;;
68273;SDS011;55104;47.356;19.448;2023-04-01T00:09:39;5.72;;;1.15;;
68273;SDS011;55104;47.356;19.448;2023-04-01T00:12:42;3.97;;;1.13;;
68273;SDS011;55104;47.356;19.448;2023-04-01T00:15:44;2.53;;;0.97;;
68273;SDS011;55104;47.356;19.448;2023-04-01T00:18:47;3.88;;;0.88;;
68273;SDS011;55104;47.356;19.448;2023-04-01T00:21:50;2.13;;;0.60;;
68273;SDS011;55104;47.356;19.448;2023-04-01T00:24:52;2.25;;;0.52;;
68273;SDS011;55104;47.356;19.448;2023-04-01T00:27:54;2.53;;;0.70;;
68273;SDS011;55104;47.356;19.448;2023-04-01T00:30:57;1.95;;;0.70;;
68273;SDS011;55104;47.356;19.448;2023-04-01T00:33:59;2.35;;;0.90;;
68273;SDS011;55104;47.356;19.448;2023-04-01T00:37:01;3.17;;;1.10;;
68273;SDS011;55104;47.356;19.448;2023-04-01T00:40:04;2.77;;;0.60;;
68273;SDS011;55104;47.356;19.448;2023-04-01T00:43:22;3.63;;;0.88;;
68273;SDS011;55104;47.356;19.448;2023-04-01T00:46:25;1.73;;;0.63;;
68273;SDS011;55104;47.356;19.448;2023-04-01T00:49:29;3.20;;;0.90;;
68273;SDS011;55104;47.356;19.448;2023-04-01T00:52:35;1.20;;;0.40;;
68273;SDS011;55104;47.356;19.448;2023-04-01T00:55:38;2.65;;;0.95;;
68273;SDS011;55104;47.356;19.448;2023-04-01T00:58:46;2.55;;;0.63;;
68273;SDS011;55104;47.356;19.448;2023-04-01T01:01:51;1.10;;;0.30;;
68273;SDS011;55104;47.356;19.448;2023-04-01T01:04:53;1.63;;;0.70;;
68273;SDS011;55104;47.356;19.448;2023-04-01T01:08:02;2.38;;;0.75;;
68273;SDS011;55104;47.356;19.448;2023-04-01T01:11:06;1.02;;;0.45;;
68273;SDS011;55104;47.356;19.448;2023-04-01T01:14:17;2.78;;;0.70;;
68273;SDS011;55104;47.356;19.448;2023-04-01T01:17:35;1.55;;;0.55;;
68273;SDS011;55104;47.356;19.448;2023-04-01T01:27:32;1.48;;;0.40;;
68273;SDS011;55104;47.356;19.448;2023-04-01T01:30:39;2.13;;;0.63;;
68273;SDS011;55104;47.356;19.448;2023-04-01T01:34:24;2.40;;;0.52;;
68273;SDS011;55104;47.356;19.448;2023-04-01T01:37:18;2.05;;;0.60;;
68273;SDS011;55104;47.356;19.448;2023-04-01T01:40:24;2.97;;;0.57;;
68273;SDS011;55104;47.356;19.448;2023-04-01T01:43:36;1.88;;;0.50;;
68273;SDS011;55104;47.356;19.448;2023-04-01T01:46:41;3.10;;;1.13;;
68273;SDS011;55104;47.356;19.448;2023-04-01T01:49:45;2.17;;;0.60;;
68273;SDS011;55104;47.356;19.448;2023-04-01T01:52:47;1.35;;;0.60;;
68273;SDS011;55104;47.356;19.448;2023-04-01T01:55:49;4.07;;;1.00;;
68273;SDS011;55104;47.356;19.448;2023-04-01T01:58:52;2.53;;;0.50;;
68273;SDS011;55104;47.356;19.448;2023-04-01T02:01:59;2.63;;;0.98;;
68273;SDS011;55104;47.356;19.448;2023-04-01T02:05:02;2.30;;;0.50;;
68273;SDS011;55104;47.356;19.448;2023-04-01T02:08:14;2.38;;;0.75;;
68273;SDS011;55104;47.356;19.448;2023-04-01T02:11:30;4.50;;;0.80;;
68273;SDS011;55104;47.356;19.448;2023-04-01T02:15:03;3.70;;;0.82;;
68273;SDS011;55104;47.356;19.448;2023-04-01T02:18:10;2.08;;;1.05;;
68273;SDS011;55104;47.356;19.448;2023-04-01T02:21:14;5.72;;;0.90;;
68273;SDS011;55104;47.356;19.448;2023-04-01T02:24:17;1.30;;;0.30;;
68273;SDS011;55104;47.356;19.448;2023-04-01T02:27:23;3.47;;;1.02;;
68273;SDS011;55104;47.356;19.448;2023-04-01T02:30:26;2.50;;;0.70;;
68273;SDS011;55104;47.356;19.448;2023-04-01T02:33:30;2.78;;;0.75;;
68273;SDS011;55104;47.356;19.448;2023-04-01T02:36:34;2.93;;;0.67;;
68273;SDS011;55104;47.356;19.448;2023-04-01T02:39:37;2.78;;;1.27;;
68273;SDS011;55104;47.356;19.448;2023-04-01T02:42:40;2.55;;;0.80;;
68273;SDS011;55104;47.356;19.448;2023-04-01T02:45:42;1.58;;;0.40;;
68273;SDS011;55104;47.356;19.448;2023-04-01T02:48:45;3.93;;;1.10;;
68273;SDS011;55104;47.356;19.448;2023-04-01T02:51:47;2.88;;;0.80;;
68273;SDS011;55104;47.356;19.448;2023-04-01T02:54:49;3.00;;;1.08;;
68273;SDS011;55104;47.356;19.448;2023-04-01T02:57:52;4.53;;;1.42;;
68273;SDS011;55104;47.356;19.448;2023-04-01T03:00:54;3.20;;;1.10;;
68273;SDS011;55104;47.356;19.448;2023-04-01T03:03:57;2.55;;;0.80;;
68273;SDS011;55104;47.356;19.448;2023-04-01T03:06:59;2.72;;;1.00;;
68273;SDS011;55104;47.356;19.448;2023-04-01T03:10:01;4.30;;;1.58;;
68273;SDS011;55104;47.356;19.448;2023-04-01T03:13:03;6.67;;;1.40;;
68273;SDS011;55104;47.356;19.448;2023-04-01T03:16:05;6.47;;;1.83;;
68273;SDS011;55104;47.356;19.448;2023-04-01T03:19:09;3.22;;;1.15;;
68273;SDS011;55104;47.356;19.448;2023-04-01T03:22:11;6.63;;;2.03;;
68273;SDS011;55104;47.356;19.448;2023-04-01T03:25:13;3.70;;;1.00;;
68273;SDS011;55104;47.356;19.448;2023-04-01T03:28:16;4.55;;;1.95;;
68273;SDS011;55104;47.356;19.448;2023-04-01T03:31:18;9.23;;;1.75;;
68273;SDS011;55104;47.356;19.448;2023-04-01T03:34:27;6.55;;;2.08;;
68273;SDS011;55104;47.356;19.448;2023-04-01T03:37:30;5.07;;;2.03;;
68273;SDS011;55104;47.356;19.448;2023-04-01T03:40:32;6.07;;;1.52;;
68273;SDS011;55104;47.356;19.448;2023-04-01T03:43:35;4.70;;;1.45;;
68273;SDS011;55104;47.356;19.448;2023-04-01T03:46:43;3.05;;;0.70;;
68273;SDS011;55104;47.356;19.448;2023-04-01T03:49:45;3.30;;;1.40;;
68273;SDS011;55104;47.356;19.448;2023-04-01T03:52:47;3.42;;;0.90;;
68273;SDS011;55104;47.356;19.448;2023-04-01T03:55:49;2.15;;;1.05;;
68273;SDS011;55104;47.356;19.448;2023-04-01T03:58:53;2.53;;;0.60;;
68273;SDS011;55104;47.356;19.448;2023-04-01T04:01:55;2.87;;;0.90;;
68273;SDS011;55104;47.356;19.448;2023-04-01T04:04:57;4.00;;;1.50;;
68273;SDS011;55104;47.356;19.448;2023-04-01T04:08:01;2.72;;;1.23;;
68273;SDS011;55104;47.356;19.448;2023-04-01T04:11:05;3.80;;;1.27;;
68273;SDS011;55104;47.356;19.448;2023-04-01T04:14:09;1.90;;;0.70;;
68273;SDS011;55104;47.356;19.448;2023-04-01T04:17:11;4.25;;;1.40;;
68273;SDS011;55104;47.356;19.448;2023-04-01T04:20:18;3.60;;;1.00;;
68273;SDS011;55104;47.356;19.448;2023-04-01T04:23:20;2.17;;;0.80;;
68273;SDS011;55104;47.356;19.448;2023-04-01T04:26:23;4.03;;;1.00;;
68273;SDS011;55104;47.356;19.448;2023-04-01T04:29:31;1.67;;;0.52;;
68273;SDS011;55104;47.356;19.448;2023-04-01T04:32:34;2.63;;;0.68;;
68273;SDS011;55104;47.356;19.448;2023-04-01T04:35:37;7.07;;;1.45;;
68273;SDS011;55104;47.356;19.448;2023-04-01T04:38:39;3.20;;;1.03;;
68273;SDS011;55104;47.356;19.448;2023-04-01T04:41:41;2.92;;;1.00;;
68273;SDS011;55104;47.356;19.448;2023-04-01T04:44:43;3.08;;;1.35;;
68273;SDS011;55104;47.356;19.448;2023-04-01T04:47:46;4.60;;;1.58;;
68273;SDS011;55104;47.356;19.448;2023-04-01T04:50:48;4.17;;;1.30;;
68273;SDS011;55104;47.356;19.448;2023-04-01T04:53:53;5.05;;;1.33;;
68273;SDS011;55104;47.356;19.448;2023-04-01T04:57:03;5.80;;;2.45;;
68273;SDS011;55104;47.356;19.448;2023-04-01T05:00:11;7.65;;;2.00;;
68273;SDS011;55104;47.356;19.448;2023-04-01T05:03:32;8.50;;;2.65;;
68273;SDS011;55104;47.356;19.448;2023-04-01T05:06:35;14.67;;;3.83;;
68273;SDS011;55104;47.356;19.448;2023-04-01T05:09:37;8.68;;;2.45;;
68273;SDS011;55104;47.356;19.448;2023-04-01T05:12:39;7.90;;;2.80;;
68273;SDS011;55104;47.356;19.448;2023-04-01T05:15:43;6.43;;;2.55;;
68273;SDS011;55104;47.356;19.448;2023-04-01T05:18:45;11.02;;;3.78;;
68273;SDS011;55104;47.356;19.448;2023-04-01T05:21:48;7.65;;;2.00;;
68273;SDS011;55104;47.356;19.448;2023-04-01T05:24:50;4.63;;;1.75;;
68273;SDS011;55104;47.356;19.448;2023-04-01T05:27:52;3.17;;;1.33;;
68273;SDS011;55104;47.356;19.448;2023-04-01T05:30:55;3.97;;;0.87;;
68273;SDS011;55104;47.356;19.448;2023-04-01T05:34:07;4.10;;;1.15;;
68273;SDS011;55104;47.356;19.448;2023-04-01T05:37:09;3.95;;;1.13;;
68273;SDS011;55104;47.356;19.448;2023-04-01T05:40:11;2.30;;;0.73;;
68273;SDS011;55104;47.356;19.448;2023-04-01T05:43:14;2.57;;;0.93;;
68273;SDS011;55104;47.356;19.448;2023-04-01T05:46:17;2.00;;;0.40;;
68273;SDS011;55104;47.356;19.448;2023-04-01T05:49:26;2.85;;;0.90;;
68273;SDS011;55104;47.356;19.448;2023-04-01T05:52:29;3.40;;;0.90;;
68273;SDS011;55104;47.356;19.448;2023-04-01T05:55:31;2.63;;;0.87;;
68273;SDS011;55104;47.356;19.448;2023-04-01T05:58:36;3.00;;;0.90;;
68273;SDS011;55104;47.356;19.448;2023-04-01T06:01:39;4.18;;;1.20;;
68273;SDS011;55104;47.356;19.448;2023-04-01T06:04:41;2.90;;;0.80;;
68273;SDS011;55104;47.356;19.448;2023-04-01T06:07:44;3.40;;;0.87;;
68273;SDS011;55104;47.356;19.448;2023-04-01T06:24:27;3.92;;;1.20;;
68273;SDS011;55104;47.356;19.448;2023-04-01T06:38:20;3.80;;;0.73;;
68273;SDS011;55104;47.356;19.448;2023-04-01T06:49:24;4.60;;;1.02;;
68273;SDS011;55104;47.356;19.448;2023-04-01T06:56:44;3.15;;;0.88;;
68273;SDS011;55104;47.356;19.448;2023-04-01T06:59:56;3.15;;;0.60;;
68273;SDS011;55104;47.356;19.448;2023-04-01T07:09:53;3.78;;;1.33;;
68273;SDS011;55104;47.356;19.448;2023-04-01T07:13:05;2.25;;;0.70;;
68273;SDS011;55104;47.356;19.448;2023-04-01T07:17:02;2.95;;;0.80;;
68273;SDS011;55104;47.356;19.448;2023-04-01T07:20:11;3.60;;;1.08;;
68273;SDS011;55104;47.356;19.448;2023-04-01T07:23:25;5.10;;;0.93;;
68273;SDS011;55104;47.356;19.448;2023-04-01T07:26:57;3.45;;;1.00;;
68273;SDS011;55104;47.356;19.448;2023-04-01T07:30:06;2.15;;;0.70;;
68273;SDS011;55104;47.356;19.448;2023-04-01T07:33:22;2.70;;;0.80;;
68273;SDS011;55104;47.356;19.448;2023-04-01T07:36:42;2.40;;;0.77;;
68273;SDS011;55104;47.356;19.448;2023-04-01T07:39:58;4.07;;;1.00;;
68273;SDS011;55104;47.356;19.448;2023-04-01T07:50:18;3.42;;;1.05;;
68273;SDS011;55104;47.356;19.448;2023-04-01T08:10:04;4.20;;;0.50;;
68273;SDS011;55104;47.356;19.448;2023-04-01T08:17:48;2.38;;;0.73;;
68273;SDS011;55104;47.356;19.448;2023-04-01T08:21:06;2.45;;;0.28;;
68273;SDS011;55104;47.356;19.448;2023-04-01T08:24:42;1.83;;;0.50;;
68273;SDS011;55104;47.356;19.448;2023-04-01T08:31:17;2.63;;;0.73;;
68273;SDS011;55104;47.356;19.448;2023-04-01T08:34:25;3.92;;;0.75;;
68273;SDS011;55104;47.356;19.448;2023-04-01T08:37:36;1.40;;;0.40;;
68273;SDS011;55104;47.356;19.448;2023-04-01T08:57:56;0.82;;;0.30;;
68273;SDS011;55104;47.356;19.448;2023-04-01T09:21:48;2.17;;;0.80;;
68273;SDS011;55104;47.356;19.448;2023-04-01T09:28:10;3.13;;;0.88;;
68273;SDS011;55104;47.356;19.448;2023-04-01T09:48:54;2.50;;;1.20;;
68273;SDS011;55104;47.356;19.448;2023-04-01T09:56:03;1.27;;;0.40;;
68273;SDS011;55104;47.356;19.448;2023-04-01T09:59:24;1.55;;;0.40;;
68273;SDS011;55104;47.356;19.448;2023-04-01T10:10:16;1.00;;;0.30;;
68273;SDS011;55104;47.356;19.448;2023-04-01T10:13:48;1.30;;;0.25;;
68273;SDS011;55104;47.356;19.448;2023-04-01T10:23:58;1.88;;;0.60;;
68273;SDS011;55104;47.356;19.448;2023-04-01T10:31:11;0.68;;;0.30;;
68273;SDS011;55104;47.356;19.448;2023-04-01T10:37:58;2.75;;;0.28;;
68273;SDS011;55104;47.356;19.448;2023-04-01T11:03:22;2.27;;;0.73;;
68273;SDS011;55104;47.356;19.448;2023-04-01T11:23:58;3.78;;;0.80;;
68273;SDS011;55104;47.356;19.448;2023-04-01T11:27:24;6.68;;;0.52;;
68273;SDS011;55104;47.356;19.448;2023-04-01T11:34:46;3.33;;;0.70;;
68273;SDS011;55104;47.356;19.448;2023-04-01T11:45:56;4.70;;;0.80;;
68273;SDS011;55104;47.356;19.448;2023-04-01T11:52:02;2.20;;;0.40;;
68273;SDS011;55104;47.356;19.448;2023-04-01T11:55:35;2.93;;;0.90;;
68273;SDS011;55104;47.356;19.448;2023-04-01T12:05:33;6.13;;;0.73;;
68273;SDS011;55104;47.356;19.448;2023-04-01T12:08:46;1.98;;;0.60;;
68273;SDS011;55104;47.356;19.448;2023-04-01T12:15:34;1.77;;;0.50;;
68273;SDS011;55104;47.356;19.448;2023-04-01T12:33:00;1.25;;;0.40;;
68273;SDS011;55104;47.356;19.448;2023-04-01T12:50:30;1.98;;;0.52;;
68273;SDS011;55104;47.356;19.448;2023-04-01T13:10:27;3.60;;;1.10;;
68273;SDS011;55104;47.356;19.448;2023-04-01T13:27:44;4.30;;;0.50;;
68273;SDS011;55104;47.356;19.448;2023-04-01T13:34:06;6.93;;;1.30;;
68273;SDS011;55104;47.356;19.448;2023-04-01T13:41:13;0.47;;;0.23;;
68273;SDS011;55104;47.356;19.448;2023-04-01T13:44:46;0.80;;;0.30;;
68273;SDS011;55104;47.356;19.448;2023-04-01T13:47:59;2.13;;;0.40;;
68273;SDS011;55104;47.356;19.448;2023-04-01T14:01:31;1.17;;;0.40;;
68273;SDS011;55104;47.356;19.448;2023-04-01T14:11:13;1.57;;;0.53;;
68273;SDS011;55104;47.356;19.448;2023-04-01T14:25:25;5.97;;;0.73;;
68273;SDS011;55104;47.356;19.448;2023-04-01T14:32:33;1.40;;;0.47;;
68273;SDS011;55104;47.356;19.448;2023-04-01T14:35:46;1.73;;;0.30;;
68273;SDS011;55104;47.356;19.448;2023-04-01T14:51:44;1.95;;;0.30;;
68273;SDS011;55104;47.356;19.448;2023-04-01T14:54:48;3.20;;;0.55;;
68273;SDS011;55104;47.356;19.448;2023-04-01T15:04:47;0.90;;;0.30;;
68273;SDS011;55104;47.356;19.448;2023-04-01T15:28:10;4.65;;;0.40;;
68273;SDS011;55104;47.356;19.448;2023-04-01T15:31:49;1.70;;;0.38;;
68273;SDS011;55104;47.356;19.448;2023-04-01T15:35:03;1.70;;;0.30;;
68273;SDS011;55104;47.356;19.448;2023-04-01T15:45:01;0.80;;;0.20;;
68273;SDS011;55104;47.356;19.448;2023-04-01T15:51:40;1.60;;;0.40;;
68273;SDS011;55104;47.356;19.448;2023-04-01T15:58:35;2.75;;;0.60;;
68273;SDS011;55104;47.356;19.448;2023-04-01T16:02:07;2.97;;;0.75;;
68273;SDS011;55104;47.356;19.448;2023-04-01T16:36:05;2.92;;;0.50;;
68273;SDS011;55104;47.356;19.448;2023-04-01T16:45:51;2.88;;;0.65;;
68273;SDS011;55104;47.356;19.448;2023-04-01T16:52:17;3.42;;;0.63;;
68273;SDS011;55104;47.356;19.448;2023-04-01T16:55:42;1.80;;;0.55;;
68273;SDS011;55104;47.356;19.448;2023-04-01T16:58:57;4.70;;;0.93;;
68273;SDS011;55104;47.356;19.448;2023-04-01T17:05:13;4.90;;;1.10;;
68273;SDS011;55104;47.356;19.448;2023-04-01T17:18:07;4.32;;;1.60;;
68273;SDS011;55104;47.356;19.448;2023-04-01T17:21:24;4.65;;;1.30;;
68273;SDS011;55104;47.356;19.448;2023-04-01T17:27:58;4.68;;;1.55;;
68273;SDS011;55104;47.356;19.448;2023-04-01T17:41:46;11.05;;;3.70;;
68273;SDS011;55104;47.356;19.448;2023-04-01T17:51:49;10.80;;;4.35;;
68273;SDS011;55104;47.356;19.448;2023-04-01T17:55:03;12.48;;;4.45;;
68273;SDS011;55104;47.356;19.448;2023-04-01T17:58:19;13.48;;;4.10;;
68273;SDS011;55104;47.356;19.448;2023-04-01T18:01:46;19.67;;;6.97;;
68273;SDS011;55104;47.356;19.448;2023-04-01T18:15:00;21.60;;;7.32;;
68273;SDS011;55104;47.356;19.448;2023-04-01T18:21:46;15.20;;;4.67;;
68273;SDS011;55104;47.356;19.448;2023-04-01T18:24:56;7.75;;;3.45;;
68273;SDS011;55104;47.356;19.448;2023-04-01T18:31:20;13.80;;;4.40;;
68273;SDS011;55104;47.356;19.448;2023-04-01T18:41:49;12.90;;;5.28;;
68273;SDS011;55104;47.356;19.448;2023-04-01T18:55:40;17.30;;;5.57;;
68273;SDS011;55104;47.356;19.448;2023-04-01T18:58:59;11.10;;;4.90;;
68273;SDS011;55104;47.356;19.448;2023-04-01T19:05:38;7.60;;;2.45;;
68273;SDS011;55104;47.356;19.448;2023-04-01T19:08:43;6.85;;;2.42;;
68273;SDS011;55104;47.356;19.448;2023-04-01T19:18:40;8.93;;;4.15;;
68273;SDS011;55104;47.356;19.448;2023-04-01T19:21:55;9.40;;;2.85;;
68273;SDS011;55104;47.356;19.448;2023-04-01T19:41:39;9.13;;;3.10;;
68273;SDS011;55104;47.356;19.448;2023-04-01T19:45:00;8.03;;;2.83;;
68273;SDS011;55104;47.356;19.448;2023-04-01T20:01:44;14.57;;;4.97;;
68273;SDS011;55104;47.356;19.448;2023-04-01T20:04:54;13.57;;;4.05;;
68273;SDS011;55104;47.356;19.448;2023-04-01T20:14:45;11.60;;;5.30;;
68273;SDS011;55104;47.356;19.448;2023-04-01T20:17:50;13.73;;;5.28;;
68273;SDS011;55104;47.356;19.448;2023-04-01T20:20:56;13.90;;;6.10;;
68273;SDS011;55104;47.356;19.448;2023-04-01T20:27:24;13.70;;;5.78;;
68273;SDS011;55104;47.356;19.448;2023-04-01T20:33:57;20.23;;;6.80;;
68273;SDS011;55104;47.356;19.448;2023-04-01T20:53:48;12.45;;;4.28;;
68273;SDS011;55104;47.356;19.448;2023-04-01T21:23:42;15.00;;;5.00;;
68273;SDS011;55104;47.356;19.448;2023-04-01T21:33:49;16.40;;;6.03;;
68273;SDS011;55104;47.356;19.448;2023-04-01T21:50:52;16.10;;;7.47;;
68273;SDS011;55104;47.356;19.448;2023-04-01T21:57:42;11.48;;;6.25;;
68273;SDS011;55104;47.356;19.448;2023-04-01T22:07:48;15.68;;;4.50;;
68273;SDS011;55104;47.356;19.448;2023-04-01T22:15:19;17.52;;;4.10;;
68273;SDS011;55104;47.356;19.448;2023-04-01T22:18:44;14.68;;;5.53;;
68273;SDS011;55104;47.356;19.448;2023-04-01T22:21:55;15.35;;;3.92;;
68273;SDS011;55104;47.356;19.448;2023-04-01T22:25:11;12.60;;;4.17;;
68273;SDS011;55104;47.356;19.448;2023-04-01T22:28:27;13.18;;;3.90;;
68273;SDS011;55104;47.356;19.448;2023-04-01T22:35:01;12.90;;;3.78;;
68273;SDS011;55104;47.356;19.448;2023-04-01T22:51:47;8.15;;;3.80;;
68273;SDS011;55104;47.356;19.448;2023-04-01T22:54:54;9.32;;;3.88;;
68273;SDS011;55104;47.356;19.448;2023-04-01T22:58:04;8.27;;;3.67;;
68273;SDS011;55104;47.356;19.448;2023-04-01T23:01:17;11.07;;;4.10;;
68273;SDS011;55104;47.356;19.448;2023-04-01T23:04:24;8.70;;;3.38;;
68273;SDS011;55104;47.356;19.448;2023-04-01T23:11:02;7.10;;;3.15;;
68273;SDS011;55104;47.356;19.448;2023-04-01T23:24:40;8.15;;;3.13;;
68273;SDS011;55104;47.356;19.448;2023-04-01T23:34:34;9.32;;;2.83;;
68273;SDS011;55104;47.356;19.448;2023-04-01T23:37:37;9.63;;;3.63;;
68273;SDS011;55104;47.356;19.448;2023-04-01T23:40:40;6.68;;;2.10;;
68273;SDS011;55104;47.356;19.448;2023-04-01T23:43:43;9.50;;;2.83;;
68273;SDS011;55104;47.356;19.448;2023-04-01T23:46:47;4.63;;;1.67;;
68273;SDS011;55104;47.356;19.448;2023-04-01T23:49:51;6.20;;;3.00;;
68273;SDS011;55104;47.356;19.448;2023-04-01T23:53:02;6.50;;;1.52;;
68273;SDS011;55104;47.356;19.448;2023-04-01T23:56:06;4.45;;;1.75;;
68273;SDS011;55104;47.356;19.448;2023-04-01T23:59:11;5.57;;;1.80;;
